Denver, Colorado
Traffic Map
Current Weather Conditions
Denver, Colorado
Overcast
Overcast

Feels Like: -4°
Wind Chill: -4° Ceiling: 2500
Heat Index: Visibility: 10mi
Dew Point: Wind: 28mph
Humidity: 93% Direction: 340° (NNW)
Pressure: 30.05in Gusts: 35mph
Raw Report DataKBKF 241458Z 34024G30KT 10SM OVC025 02/01 A3005 RMK AO2A PK WND 33036/29 SLP150 60005 T00240013 52032
Traffic Incident Summary
Active as of:
Severity:
Category:
InformationThere was an issue retrieving the traffic information for this location. Please try a different location or try again shortly.
Advertisements
Track Severe Weather on mobile